sensor_id;sensor_type;location;lat;lon;timestamp;temperature;humidity
5723;DHT22;2886;49.722;8.612;2022-12-18T00:00:31;-6.80;99.90
5723;DHT22;2886;49.722;8.612;2022-12-18T00:02:57;-6.80;99.90
5723;DHT22;2886;49.722;8.612;2022-12-18T00:05:23;-6.70;99.90
5723;DHT22;2886;49.722;8.612;2022-12-18T00:07:48;-6.70;99.90
5723;DHT22;2886;49.722;8.612;2022-12-18T00:10:14;-6.70;99.90
5723;DHT22;2886;49.722;8.612;2022-12-18T00:12:40;-6.80;99.90
5723;DHT22;2886;49.722;8.612;2022-12-18T00:15:05;-6.90;99.90
5723;DHT22;2886;49.722;8.612;2022-12-18T00:17:31;-6.80;99.90
5723;DHT22;2886;49.722;8.612;2022-12-18T00:19:57;-6.80;99.90
5723;DHT22;2886;49.722;8.612;2022-12-18T00:22:22;-6.90;99.90
5723;DHT22;2886;49.722;8.612;2022-12-18T00:24:48;-7.00;99.90
5723;DHT22;2886;49.722;8.612;2022-12-18T00:27:13;-7.00;99.90
5723;DHT22;2886;49.722;8.612;2022-12-18T00:29:39;-6.90;99.90
5723;DHT22;2886;49.722;8.612;2022-12-18T00:32:04;-6.90;99.90
5723;DHT22;2886;49.722;8.612;2022-12-18T00:34:30;-6.90;99.90
5723;DHT22;2886;49.722;8.612;2022-12-18T00:36:55;-6.90;99.90
5723;DHT22;2886;49.722;8.612;2022-12-18T00:39:21;-7.00;99.90
5723;DHT22;2886;49.722;8.612;2022-12-18T00:41:47;-7.00;99.90
5723;DHT22;2886;49.722;8.612;2022-12-18T00:44:31;-7.00;99.90
5723;DHT22;2886;49.722;8.612;2022-12-18T00:46:56;-7.00;99.90
5723;DHT22;2886;49.722;8.612;2022-12-18T00:49:22;-7.00;99.90
5723;DHT22;2886;49.722;8.612;2022-12-18T00:51:48;-7.00;99.90
5723;DHT22;2886;49.722;8.612;2022-12-18T00:54:13;-7.00;99.90
5723;DHT22;2886;49.722;8.612;2022-12-18T00:56:39;-7.10;99.90
5723;DHT22;2886;49.722;8.612;2022-12-18T00:59:05;-7.10;99.90
5723;DHT22;2886;49.722;8.612;2022-12-18T01:01:31;-7.10;99.90
5723;DHT22;2886;49.722;8.612;2022-12-18T01:03:58;-7.10;99.90
5723;DHT22;2886;49.722;8.612;2022-12-18T01:06:24;-7.10;99.90
5723;DHT22;2886;49.722;8.612;2022-12-18T01:08:50;-7.10;99.90
5723;DHT22;2886;49.722;8.612;2022-12-18T01:11:17;-7.10;99.90
5723;DHT22;2886;49.722;8.612;2022-12-18T01:13:43;-7.10;99.90
5723;DHT22;2886;49.722;8.612;2022-12-18T01:16:12;-7.20;99.90
5723;DHT22;2886;49.722;8.612;2022-12-18T01:18:38;-7.20;99.90
5723;DHT22;2886;49.722;8.612;2022-12-18T01:21:14;-7.30;99.90
5723;DHT22;2886;49.722;8.612;2022-12-18T01:23:41;-7.20;99.90
5723;DHT22;2886;49.722;8.612;2022-12-18T01:26:12;-7.20;99.90
5723;DHT22;2886;49.722;8.612;2022-12-18T01:28:38;-7.20;99.90
5723;DHT22;2886;49.722;8.612;2022-12-18T01:31:15;-7.30;99.90
5723;DHT22;2886;49.722;8.612;2022-12-18T01:33:41;-7.30;99.90
5723;DHT22;2886;49.722;8.612;2022-12-18T01:36:07;-7.30;99.90
5723;DHT22;2886;49.722;8.612;2022-12-18T01:38:33;-7.30;99.90
5723;DHT22;2886;49.722;8.612;2022-12-18T01:41:00;-7.30;99.90
5723;DHT22;2886;49.722;8.612;2022-12-18T01:44:01;-7.30;99.90
5723;DHT22;2886;49.722;8.612;2022-12-18T01:46:27;-7.20;99.90
5723;DHT22;2886;49.722;8.612;2022-12-18T01:49:00;-7.20;99.90
5723;DHT22;2886;49.722;8.612;2022-12-18T01:51:27;-7.20;99.90
5723;DHT22;2886;49.722;8.612;2022-12-18T01:53:54;-7.20;99.90
5723;DHT22;2886;49.722;8.612;2022-12-18T01:56:21;-7.10;99.90
5723;DHT22;2886;49.722;8.612;2022-12-18T01:59:03;-7.20;99.90
5723;DHT22;2886;49.722;8.612;2022-12-18T02:01:31;-7.20;99.90
5723;DHT22;2886;49.722;8.612;2022-12-18T02:04:26;-7.20;99.90
5723;DHT22;2886;49.722;8.612;2022-12-18T02:09:51;-7.30;99.90
5723;DHT22;2886;49.722;8.612;2022-12-18T02:12:24;-7.30;99.90
5723;DHT22;2886;49.722;8.612;2022-12-18T02:15:03;-7.30;99.90
5723;DHT22;2886;49.722;8.612;2022-12-18T02:17:46;-7.40;99.90
5723;DHT22;2886;49.722;8.612;2022-12-18T02:20:35;-7.50;99.90
5723;DHT22;2886;49.722;8.612;2022-12-18T02:28:51;-7.60;99.90
5723;DHT22;2886;49.722;8.612;2022-12-18T02:31:22;-7.70;99.90
5723;DHT22;2886;49.722;8.612;2022-12-18T02:33:51;-7.80;99.90
5723;DHT22;2886;49.722;8.612;2022-12-18T02:36:18;-7.80;99.90
5723;DHT22;2886;49.722;8.612;2022-12-18T02:38:46;-7.80;99.90
5723;DHT22;2886;49.722;8.612;2022-12-18T02:41:13;-7.80;99.90
5723;DHT22;2886;49.722;8.612;2022-12-18T02:43:42;-7.80;99.90
5723;DHT22;2886;49.722;8.612;2022-12-18T02:46:42;-7.90;99.90
5723;DHT22;2886;49.722;8.612;2022-12-18T02:49:26;-7.90;99.90
5723;DHT22;2886;49.722;8.612;2022-12-18T02:57:50;-8.00;99.90
5723;DHT22;2886;49.722;8.612;2022-12-18T03:00:23;-8.00;99.90
5723;DHT22;2886;49.722;8.612;2022-12-18T03:05:41;-8.10;99.90
5723;DHT22;2886;49.722;8.612;2022-12-18T03:08:22;-8.20;99.90
5723;DHT22;2886;49.722;8.612;2022-12-18T03:11:01;-8.10;99.90
5723;DHT22;2886;49.722;8.612;2022-12-18T03:13:46;-8.10;99.90
5723;DHT22;2886;49.722;8.612;2022-12-18T03:16:27;-8.00;99.90
5723;DHT22;2886;49.722;8.612;2022-12-18T03:18:55;-8.00;99.90
5723;DHT22;2886;49.722;8.612;2022-12-18T03:21:25;-8.00;99.90
5723;DHT22;2886;49.722;8.612;2022-12-18T03:23:52;-8.00;99.90
5723;DHT22;2886;49.722;8.612;2022-12-18T03:26:22;-8.00;99.90
5723;DHT22;2886;49.722;8.612;2022-12-18T03:28:52;-8.00;99.90
5723;DHT22;2886;49.722;8.612;2022-12-18T03:31:21;-7.90;99.90
5723;DHT22;2886;49.722;8.612;2022-12-18T03:33:56;-7.80;99.90
5723;DHT22;2886;49.722;8.612;2022-12-18T03:36:23;-7.90;99.90
5723;DHT22;2886;49.722;8.612;2022-12-18T03:38:51;-7.90;99.90
5723;DHT22;2886;49.722;8.612;2022-12-18T03:44:43;-8.00;99.90
5723;DHT22;2886;49.722;8.612;2022-12-18T03:47:34;-7.90;99.90
5723;DHT22;2886;49.722;8.612;2022-12-18T03:50:21;-8.00;99.90
5723;DHT22;2886;49.722;8.612;2022-12-18T03:52:52;-8.00;99.90
5723;DHT22;2886;49.722;8.612;2022-12-18T03:55:21;-8.00;99.90
5723;DHT22;2886;49.722;8.612;2022-12-18T03:57:48;-8.10;99.90
5723;DHT22;2886;49.722;8.612;2022-12-18T04:00:17;-8.10;99.90
5723;DHT22;2886;49.722;8.612;2022-12-18T04:02:48;-8.10;99.90
5723;DHT22;2886;49.722;8.612;2022-12-18T04:05:17;-8.00;99.90
5723;DHT22;2886;49.722;8.612;2022-12-18T04:07:44;-8.00;99.90
5723;DHT22;2886;49.722;8.612;2022-12-18T04:10:11;-8.00;99.90
5723;DHT22;2886;49.722;8.612;2022-12-18T04:12:37;-8.00;99.90
5723;DHT22;2886;49.722;8.612;2022-12-18T04:15:04;-8.00;99.90
5723;DHT22;2886;49.722;8.612;2022-12-18T04:17:30;-8.00;99.90
5723;DHT22;2886;49.722;8.612;2022-12-18T04:19:55;-8.10;99.90
5723;DHT22;2886;49.722;8.612;2022-12-18T04:22:21;-8.10;99.90
5723;DHT22;2886;49.722;8.612;2022-12-18T04:24:46;-8.20;99.90
5723;DHT22;2886;49.722;8.612;2022-12-18T04:27:12;-8.20;99.90
5723;DHT22;2886;49.722;8.612;2022-12-18T04:29:38;-8.20;99.90
5723;DHT22;2886;49.722;8.612;2022-12-18T04:32:03;-8.20;99.90
5723;DHT22;2886;49.722;8.612;2022-12-18T04:34:29;-8.30;99.90
5723;DHT22;2886;49.722;8.612;2022-12-18T04:36:54;-8.30;99.90
5723;DHT22;2886;49.722;8.612;2022-12-18T04:39:20;-8.30;99.90
5723;DHT22;2886;49.722;8.612;2022-12-18T04:41:46;-8.30;99.90
5723;DHT22;2886;49.722;8.612;2022-12-18T04:44:11;-8.30;99.90
5723;DHT22;2886;49.722;8.612;2022-12-18T04:46:37;-8.40;99.90
5723;DHT22;2886;49.722;8.612;2022-12-18T04:49:03;-8.40;99.90
5723;DHT22;2886;49.722;8.612;2022-12-18T04:51:28;-8.40;99.90
5723;DHT22;2886;49.722;8.612;2022-12-18T04:53:54;-8.40;99.90
5723;DHT22;2886;49.722;8.612;2022-12-18T04:56:20;-8.50;99.90
5723;DHT22;2886;49.722;8.612;2022-12-18T04:58:45;-8.50;99.90
5723;DHT22;2886;49.722;8.612;2022-12-18T05:01:13;-8.50;99.90
5723;DHT22;2886;49.722;8.612;2022-12-18T05:03:39;-8.50;99.90
5723;DHT22;2886;49.722;8.612;2022-12-18T05:06:05;-8.50;99.90
5723;DHT22;2886;49.722;8.612;2022-12-18T05:08:32;-8.60;99.90
5723;DHT22;2886;49.722;8.612;2022-12-18T05:11:06;-8.60;99.90
5723;DHT22;2886;49.722;8.612;2022-12-18T05:13:32;-8.60;99.90
5723;DHT22;2886;49.722;8.612;2022-12-18T05:15:58;-8.60;99.90
5723;DHT22;2886;49.722;8.612;2022-12-18T05:18:24;-8.60;99.90
5723;DHT22;2886;49.722;8.612;2022-12-18T05:20:51;-8.60;99.90
5723;DHT22;2886;49.722;8.612;2022-12-18T05:23:17;-8.60;99.90
5723;DHT22;2886;49.722;8.612;2022-12-18T05:28:18;-8.40;99.90
5723;DHT22;2886;49.722;8.612;2022-12-18T05:30:48;-8.30;99.90
5723;DHT22;2886;49.722;8.612;2022-12-18T05:33:14;-8.20;99.90
5723;DHT22;2886;49.722;8.612;2022-12-18T05:35:40;-8.20;99.90
5723;DHT22;2886;49.722;8.612;2022-12-18T05:38:05;-8.10;99.90
5723;DHT22;2886;49.722;8.612;2022-12-18T05:40:31;-8.10;99.90
5723;DHT22;2886;49.722;8.612;2022-12-18T05:42:57;-8.10;99.90
5723;DHT22;2886;49.722;8.612;2022-12-18T05:45:22;-8.10;99.90
5723;DHT22;2886;49.722;8.612;2022-12-18T05:47:48;-8.10;99.90
5723;DHT22;2886;49.722;8.612;2022-12-18T05:50:13;-8.20;99.90
5723;DHT22;2886;49.722;8.612;2022-12-18T05:52:39;-8.20;99.90
5723;DHT22;2886;49.722;8.612;2022-12-18T05:55:05;-8.20;99.90
5723;DHT22;2886;49.722;8.612;2022-12-18T05:57:31;-8.10;99.90
5723;DHT22;2886;49.722;8.612;2022-12-18T05:59:56;-8.10;99.90
5723;DHT22;2886;49.722;8.612;2022-12-18T06:02:22;-8.10;99.90
5723;DHT22;2886;49.722;8.612;2022-12-18T06:04:47;-8.00;99.90
5723;DHT22;2886;49.722;8.612;2022-12-18T06:07:13;-8.10;99.90
5723;DHT22;2886;49.722;8.612;2022-12-18T06:09:39;-8.10;99.90
5723;DHT22;2886;49.722;8.612;2022-12-18T06:12:05;-8.00;99.90
5723;DHT22;2886;49.722;8.612;2022-12-18T06:14:31;-7.90;99.90
5723;DHT22;2886;49.722;8.612;2022-12-18T06:16:57;-7.90;99.90
5723;DHT22;2886;49.722;8.612;2022-12-18T06:19:22;-7.80;99.90
5723;DHT22;2886;49.722;8.612;2022-12-18T06:21:48;-7.80;99.90
5723;DHT22;2886;49.722;8.612;2022-12-18T06:24:14;-7.70;99.90
5723;DHT22;2886;49.722;8.612;2022-12-18T06:26:40;-7.70;99.90
5723;DHT22;2886;49.722;8.612;2022-12-18T06:29:06;-7.70;99.90
5723;DHT22;2886;49.722;8.612;2022-12-18T06:31:32;-7.70;99.90
5723;DHT22;2886;49.722;8.612;2022-12-18T06:33:57;-7.70;99.90
5723;DHT22;2886;49.722;8.612;2022-12-18T06:36:23;-7.80;99.90
5723;DHT22;2886;49.722;8.612;2022-12-18T06:38:49;-7.80;99.90
5723;DHT22;2886;49.722;8.612;2022-12-18T06:41:19;-7.90;99.90
5723;DHT22;2886;49.722;8.612;2022-12-18T06:43:45;-7.90;99.90
5723;DHT22;2886;49.722;8.612;2022-12-18T06:46:11;-7.90;99.90
5723;DHT22;2886;49.722;8.612;2022-12-18T06:48:37;-7.90;99.90
5723;DHT22;2886;49.722;8.612;2022-12-18T06:51:03;-8.00;99.90
5723;DHT22;2886;49.722;8.612;2022-12-18T06:53:29;-8.00;99.90
5723;DHT22;2886;49.722;8.612;2022-12-18T06:56:05;-7.90;99.90
5723;DHT22;2886;49.722;8.612;2022-12-18T06:58:32;-7.90;99.90
5723;DHT22;2886;49.722;8.612;2022-12-18T07:01:01;-7.90;99.90
5723;DHT22;2886;49.722;8.612;2022-12-18T07:03:27;-7.90;99.90
5723;DHT22;2886;49.722;8.612;2022-12-18T07:05:53;-7.90;99.90
5723;DHT22;2886;49.722;8.612;2022-12-18T07:08:19;-7.90;99.90
5723;DHT22;2886;49.722;8.612;2022-12-18T07:10:44;-7.90;99.90
5723;DHT22;2886;49.722;8.612;2022-12-18T07:13:10;-8.00;99.90
5723;DHT22;2886;49.722;8.612;2022-12-18T07:15:37;-7.90;99.90
5723;DHT22;2886;49.722;8.612;2022-12-18T07:18:02;-7.90;99.90
5723;DHT22;2886;49.722;8.612;2022-12-18T07:20:29;-8.00;99.90
5723;DHT22;2886;49.722;8.612;2022-12-18T07:22:54;-8.10;99.90
5723;DHT22;2886;49.722;8.612;2022-12-18T07:25:20;-8.20;99.90
5723;DHT22;2886;49.722;8.612;2022-12-18T07:27:45;-8.10;99.90
5723;DHT22;2886;49.722;8.612;2022-12-18T07:30:11;-8.10;99.90
5723;DHT22;2886;49.722;8.612;2022-12-18T07:32:37;-8.00;99.90
5723;DHT22;2886;49.722;8.612;2022-12-18T07:35:03;-7.90;99.90
5723;DHT22;2886;49.722;8.612;2022-12-18T07:37:28;-7.80;99.90
5723;DHT22;2886;49.722;8.612;2022-12-18T07:39:54;-7.80;99.90
5723;DHT22;2886;49.722;8.612;2022-12-18T07:42:19;-7.80;99.90
5723;DHT22;2886;49.722;8.612;2022-12-18T07:44:58;-7.80;99.90
5723;DHT22;2886;49.722;8.612;2022-12-18T07:47:24;-7.70;99.90
5723;DHT22;2886;49.722;8.612;2022-12-18T07:49:49;-7.70;99.90
5723;DHT22;2886;49.722;8.612;2022-12-18T07:52:19;-7.70;99.90
5723;DHT22;2886;49.722;8.612;2022-12-18T07:54:45;-7.70;99.90
5723;DHT22;2886;49.722;8.612;2022-12-18T07:57:11;-7.70;99.90
5723;DHT22;2886;49.722;8.612;2022-12-18T07:59:36;-7.70;99.90
5723;DHT22;2886;49.722;8.612;2022-12-18T08:02:02;-7.70;99.90
5723;DHT22;2886;49.722;8.612;2022-12-18T08:04:28;-7.70;99.90
5723;DHT22;2886;49.722;8.612;2022-12-18T08:06:54;-7.80;99.90
5723;DHT22;2886;49.722;8.612;2022-12-18T08:09:19;-7.80;99.90
5723;DHT22;2886;49.722;8.612;2022-12-18T08:11:45;-7.80;99.90
5723;DHT22;2886;49.722;8.612;2022-12-18T08:14:11;-7.70;99.90
5723;DHT22;2886;49.722;8.612;2022-12-18T08:16:36;-7.70;99.90
5723;DHT22;2886;49.722;8.612;2022-12-18T08:19:02;-7.60;99.90
5723;DHT22;2886;49.722;8.612;2022-12-18T08:21:30;-7.70;99.90
5723;DHT22;2886;49.722;8.612;2022-12-18T08:23:58;-7.70;99.90
5723;DHT22;2886;49.722;8.612;2022-12-18T08:26:26;-7.60;99.90
5723;DHT22;2886;49.722;8.612;2022-12-18T08:28:54;-7.60;99.90
5723;DHT22;2886;49.722;8.612;2022-12-18T08:31:20;-7.60;99.90
5723;DHT22;2886;49.722;8.612;2022-12-18T08:33:49;-7.60;99.90
5723;DHT22;2886;49.722;8.612;2022-12-18T08:36:15;-7.60;99.90
5723;DHT22;2886;49.722;8.612;2022-12-18T08:38:41;-7.60;99.90
5723;DHT22;2886;49.722;8.612;2022-12-18T08:41:10;-7.50;99.90
5723;DHT22;2886;49.722;8.612;2022-12-18T08:43:36;-7.60;99.90
5723;DHT22;2886;49.722;8.612;2022-12-18T08:46:23;-7.50;99.90
5723;DHT22;2886;49.722;8.612;2022-12-18T08:48:51;-7.50;99.90
5723;DHT22;2886;49.722;8.612;2022-12-18T08:51:17;-7.40;99.90
5723;DHT22;2886;49.722;8.612;2022-12-18T08:53:43;-7.40;99.90
5723;DHT22;2886;49.722;8.612;2022-12-18T08:56:10;-7.40;99.90
5723;DHT22;2886;49.722;8.612;2022-12-18T08:58:36;-7.40;99.90
5723;DHT22;2886;49.722;8.612;2022-12-18T09:01:07;-7.30;99.90
5723;DHT22;2886;49.722;8.612;2022-12-18T09:03:34;-7.30;99.90
5723;DHT22;2886;49.722;8.612;2022-12-18T09:06:01;-7.20;99.90
5723;DHT22;2886;49.722;8.612;2022-12-18T09:08:27;-7.20;99.90
5723;DHT22;2886;49.722;8.612;2022-12-18T09:10:55;-7.10;99.90
5723;DHT22;2886;49.722;8.612;2022-12-18T09:13:21;-7.00;99.90
5723;DHT22;2886;49.722;8.612;2022-12-18T09:15:49;-6.90;99.90
5723;DHT22;2886;49.722;8.612;2022-12-18T09:18:17;-6.90;99.90
5723;DHT22;2886;49.722;8.612;2022-12-18T09:20:43;-6.90;99.90
5723;DHT22;2886;49.722;8.612;2022-12-18T09:23:09;-7.00;99.90
5723;DHT22;2886;49.722;8.612;2022-12-18T09:25:35;-7.00;99.90
5723;DHT22;2886;49.722;8.612;2022-12-18T09:28:03;-7.00;99.90
5723;DHT22;2886;49.722;8.612;2022-12-18T09:30:29;-6.90;99.90
5723;DHT22;2886;49.722;8.612;2022-12-18T09:32:55;-6.90;99.90
5723;DHT22;2886;49.722;8.612;2022-12-18T09:35:21;-6.90;99.90
5723;DHT22;2886;49.722;8.612;2022-12-18T09:37:47;-6.70;99.90
5723;DHT22;2886;49.722;8.612;2022-12-18T09:40:26;-6.60;99.90
5723;DHT22;2886;49.722;8.612;2022-12-18T09:43:00;-6.30;99.90
5723;DHT22;2886;49.722;8.612;2022-12-18T09:45:34;-6.50;99.90
5723;DHT22;2886;49.722;8.612;2022-12-18T09:48:05;-6.50;99.90
5723;DHT22;2886;49.722;8.612;2022-12-18T09:50:37;-6.30;99.90
5723;DHT22;2886;49.722;8.612;2022-12-18T09:53:09;-6.00;99.90
5723;DHT22;2886;49.722;8.612;2022-12-18T09:55:41;-5.80;99.90
5723;DHT22;2886;49.722;8.612;2022-12-18T09:58:35;-5.60;99.90
5723;DHT22;2886;49.722;8.612;2022-12-18T10:01:07;-5.40;99.90
5723;DHT22;2886;49.722;8.612;2022-12-18T10:03:35;-5.30;99.90
5723;DHT22;2886;49.722;8.612;2022-12-18T10:14:27;-5.20;99.90
5723;DHT22;2886;49.722;8.612;2022-12-18T10:25:14;-4.70;99.90
5723;DHT22;2886;49.722;8.612;2022-12-18T10:27:41;-4.60;99.90
5723;DHT22;2886;49.722;8.612;2022-12-18T10:30:15;-4.50;99.90
5723;DHT22;2886;49.722;8.612;2022-12-18T10:32:41;-4.40;99.90
5723;DHT22;2886;49.722;8.612;2022-12-18T10:35:15;-4.20;99.90
5723;DHT22;2886;49.722;8.612;2022-12-18T10:38:03;-4.20;99.90
5723;DHT22;2886;49.722;8.612;2022-12-18T10:40:29;-4.10;99.90
5723;DHT22;2886;49.722;8.612;2022-12-18T10:43:15;-4.20;99.90
5723;DHT22;2886;49.722;8.612;2022-12-18T10:45:42;-4.10;99.90
5723;DHT22;2886;49.722;8.612;2022-12-18T10:48:23;-4.10;99.90
5723;DHT22;2886;49.722;8.612;2022-12-18T10:50:51;-4.10;99.90
5723;DHT22;2886;49.722;8.612;2022-12-18T10:53:36;-4.10;99.90
5723;DHT22;2886;49.722;8.612;2022-12-18T10:56:04;-4.00;99.90
5723;DHT22;2886;49.722;8.612;2022-12-18T10:58:38;-3.90;99.90
5723;DHT22;2886;49.722;8.612;2022-12-18T11:01:17;-3.90;99.90
5723;DHT22;2886;49.722;8.612;2022-12-18T11:06:17;-3.80;99.90
5723;DHT22;2886;49.722;8.612;2022-12-18T11:08:44;-3.70;99.90
5723;DHT22;2886;49.722;8.612;2022-12-18T11:11:21;-3.60;99.90
5723;DHT22;2886;49.722;8.612;2022-12-18T11:14:14;-3.60;99.90
5723;DHT22;2886;49.722;8.612;2022-12-18T11:16:48;-3.50;99.90
5723;DHT22;2886;49.722;8.612;2022-12-18T11:21:51;-3.40;99.90
5723;DHT22;2886;49.722;8.612;2022-12-18T11:24:29;-3.30;99.90
5723;DHT22;2886;49.722;8.612;2022-12-18T11:26:58;-3.30;99.90
5723;DHT22;2886;49.722;8.612;2022-12-18T11:29:36;-3.20;99.90
5723;DHT22;2886;49.722;8.612;2022-12-18T11:35:20;-3.10;99.90
5723;DHT22;2886;49.722;8.612;2022-12-18T11:37:53;-3.20;99.90
5723;DHT22;2886;49.722;8.612;2022-12-18T11:40:30;-3.30;99.90
5723;DHT22;2886;49.722;8.612;2022-12-18T11:43:06;-3.40;99.90
5723;DHT22;2886;49.722;8.612;2022-12-18T11:45:46;-3.40;99.90
5723;DHT22;2886;49.722;8.612;2022-12-18T11:48:25;-3.30;99.90
5723;DHT22;2886;49.722;8.612;2022-12-18T11:50:54;-3.20;99.90
5723;DHT22;2886;49.722;8.612;2022-12-18T11:53:21;-3.20;99.90
5723;DHT22;2886;49.722;8.612;2022-12-18T12:04:08;-3.20;99.90
5723;DHT22;2886;49.722;8.612;2022-12-18T12:10:12;-3.30;99.90
5723;DHT22;2886;49.722;8.612;2022-12-18T12:18:25;-3.60;99.90
5723;DHT22;2886;49.722;8.612;2022-12-18T12:21:03;-3.70;99.90
5723;DHT22;2886;49.722;8.612;2022-12-18T12:29:44;-3.80;99.90
5723;DHT22;2886;49.722;8.612;2022-12-18T12:32:22;-3.80;99.90
5723;DHT22;2886;49.722;8.612;2022-12-18T12:40:54;-3.60;99.90
5723;DHT22;2886;49.722;8.612;2022-12-18T12:43:24;-3.60;99.90
5723;DHT22;2886;49.722;8.612;2022-12-18T12:45:57;-3.40;99.90
5723;DHT22;2886;49.722;8.612;2022-12-18T12:53:45;-3.30;99.90
5723;DHT22;2886;49.722;8.612;2022-12-18T12:56:14;-3.30;99.90
5723;DHT22;2886;49.722;8.612;2022-12-18T13:01:39;-3.20;99.90
5723;DHT22;2886;49.722;8.612;2022-12-18T13:04:30;-3.20;99.90
5723;DHT22;2886;49.722;8.612;2022-12-18T13:18:15;-3.60;99.90
5723;DHT22;2886;49.722;8.612;2022-12-18T13:21:08;-3.60;99.90
5723;DHT22;2886;49.722;8.612;2022-12-18T13:23:41;-3.70;99.90
5723;DHT22;2886;49.722;8.612;2022-12-18T13:31:00;-3.60;99.90
5723;DHT22;2886;49.722;8.612;2022-12-18T13:41:41;-3.70;99.90
5723;DHT22;2886;49.722;8.612;2022-12-18T13:46:58;-3.70;99.90
5723;DHT22;2886;49.722;8.612;2022-12-18T13:49:39;-3.70;99.90
5723;DHT22;2886;49.722;8.612;2022-12-18T13:52:27;-3.70;99.90
5723;DHT22;2886;49.722;8.612;2022-12-18T13:54:56;-3.80;99.90
5723;DHT22;2886;49.722;8.612;2022-12-18T13:57:34;-3.80;99.90
5723;DHT22;2886;49.722;8.612;2022-12-18T14:00:26;-3.80;99.90
5723;DHT22;2886;49.722;8.612;2022-12-18T14:02:57;-3.80;99.90
5723;DHT22;2886;49.722;8.612;2022-12-18T14:05:36;-3.80;99.90
5723;DHT22;2886;49.722;8.612;2022-12-18T14:08:13;-3.80;99.90
5723;DHT22;2886;49.722;8.612;2022-12-18T14:10:42;-3.80;99.90
5723;DHT22;2886;49.722;8.612;2022-12-18T14:13:10;-3.80;99.90
5723;DHT22;2886;49.722;8.612;2022-12-18T14:15:41;-3.80;99.90
5723;DHT22;2886;49.722;8.612;2022-12-18T14:18:23;-3.80;99.90
5723;DHT22;2886;49.722;8.612;2022-12-18T14:20:56;-3.80;99.90
5723;DHT22;2886;49.722;8.612;2022-12-18T14:23:40;-3.80;99.90
5723;DHT22;2886;49.722;8.612;2022-12-18T14:28:48;-3.80;99.90
5723;DHT22;2886;49.722;8.612;2022-12-18T14:31:22;-3.80;99.90
5723;DHT22;2886;49.722;8.612;2022-12-18T14:33:48;-3.80;99.90
5723;DHT22;2886;49.722;8.612;2022-12-18T14:36:24;-3.90;99.90
5723;DHT22;2886;49.722;8.612;2022-12-18T14:38:55;-3.90;99.90
5723;DHT22;2886;49.722;8.612;2022-12-18T14:41:22;-3.90;99.90
5723;DHT22;2886;49.722;8.612;2022-12-18T14:43:50;-4.00;99.90
5723;DHT22;2886;49.722;8.612;2022-12-18T14:46:36;-4.00;99.90
5723;DHT22;2886;49.722;8.612;2022-12-18T14:49:04;-4.00;99.90
5723;DHT22;2886;49.722;8.612;2022-12-18T14:51:34;-4.00;99.90
5723;DHT22;2886;49.722;8.612;2022-12-18T14:54:04;-4.00;99.90
5723;DHT22;2886;49.722;8.612;2022-12-18T14:56:44;-4.00;99.90
5723;DHT22;2886;49.722;8.612;2022-12-18T14:59:15;-4.10;99.90
5723;DHT22;2886;49.722;8.612;2022-12-18T15:07:16;-4.20;99.90
5723;DHT22;2886;49.722;8.612;2022-12-18T15:12:43;-4.30;99.90
5723;DHT22;2886;49.722;8.612;2022-12-18T15:20:58;-4.40;99.90
5723;DHT22;2886;49.722;8.612;2022-12-18T15:23:38;-4.40;99.90
5723;DHT22;2886;49.722;8.612;2022-12-18T15:26:12;-4.40;99.90
5723;DHT22;2886;49.722;8.612;2022-12-18T15:28:39;-4.40;99.90
5723;DHT22;2886;49.722;8.612;2022-12-18T15:36:24;-4.40;99.90
5723;DHT22;2886;49.722;8.612;2022-12-18T15:38:55;-4.40;99.90
5723;DHT22;2886;49.722;8.612;2022-12-18T15:41:22;-4.40;99.90
5723;DHT22;2886;49.722;8.612;2022-12-18T15:43:49;-4.40;99.90
5723;DHT22;2886;49.722;8.612;2022-12-18T15:46:20;-4.30;99.90
5723;DHT22;2886;49.722;8.612;2022-12-18T15:48:48;-4.40;99.90
5723;DHT22;2886;49.722;8.612;2022-12-18T15:51:35;-4.40;99.90
5723;DHT22;2886;49.722;8.612;2022-12-18T15:54:04;-4.40;99.90
5723;DHT22;2886;49.722;8.612;2022-12-18T15:56:30;-4.40;99.90
5723;DHT22;2886;49.722;8.612;2022-12-18T15:59:17;-4.30;99.90
5723;DHT22;2886;49.722;8.612;2022-12-18T16:01:46;-4.40;99.90
5723;DHT22;2886;49.722;8.612;2022-12-18T16:04:15;-4.40;99.90
5723;DHT22;2886;49.722;8.612;2022-12-18T16:06:41;-4.50;99.90
5723;DHT22;2886;49.722;8.612;2022-12-18T16:09:07;-4.50;99.90
5723;DHT22;2886;49.722;8.612;2022-12-18T16:11:35;-4.50;99.90
5723;DHT22;2886;49.722;8.612;2022-12-18T16:14:20;-4.50;99.90
5723;DHT22;2886;49.722;8.612;2022-12-18T16:16:48;-4.50;99.90
5723;DHT22;2886;49.722;8.612;2022-12-18T16:19:14;-4.50;99.90
5723;DHT22;2886;49.722;8.612;2022-12-18T16:21:40;-4.50;99.90
5723;DHT22;2886;49.722;8.612;2022-12-18T16:24:14;-4.40;99.90
5723;DHT22;2886;49.722;8.612;2022-12-18T16:26:40;-4.40;99.90
5723;DHT22;2886;49.722;8.612;2022-12-18T16:31:59;-4.30;99.90
5723;DHT22;2886;49.722;8.612;2022-12-18T16:34:27;-4.20;99.90
5723;DHT22;2886;49.722;8.612;2022-12-18T16:36:58;-4.20;99.90
5723;DHT22;2886;49.722;8.612;2022-12-18T16:39:25;-4.20;99.90
5723;DHT22;2886;49.722;8.612;2022-12-18T16:41:51;-4.20;99.90
5723;DHT22;2886;49.722;8.612;2022-12-18T16:44:21;-4.20;99.90
5723;DHT22;2886;49.722;8.612;2022-12-18T16:46:47;-4.20;99.90
5723;DHT22;2886;49.722;8.612;2022-12-18T16:49:14;-4.30;99.90
5723;DHT22;2886;49.722;8.612;2022-12-18T16:51:40;-4.20;99.90
5723;DHT22;2886;49.722;8.612;2022-12-18T16:54:06;-4.20;99.90
5723;DHT22;2886;49.722;8.612;2022-12-18T16:56:31;-4.10;99.90
5723;DHT22;2886;49.722;8.612;2022-12-18T16:58:59;-4.10;99.90
5723;DHT22;2886;49.722;8.612;2022-12-18T17:01:26;-4.00;99.90
5723;DHT22;2886;49.722;8.612;2022-12-18T17:04:02;-4.00;99.90
5723;DHT22;2886;49.722;8.612;2022-12-18T17:06:31;-4.00;99.90
5723;DHT22;2886;49.722;8.612;2022-12-18T17:09:02;-4.00;99.90
5723;DHT22;2886;49.722;8.612;2022-12-18T17:11:30;-4.00;99.90
5723;DHT22;2886;49.722;8.612;2022-12-18T17:13:57;-4.00;99.90
5723;DHT22;2886;49.722;8.612;2022-12-18T17:16:23;-4.00;99.90
5723;DHT22;2886;49.722;8.612;2022-12-18T17:18:50;-4.00;99.90
5723;DHT22;2886;49.722;8.612;2022-12-18T17:21:16;-4.00;99.90
5723;DHT22;2886;49.722;8.612;2022-12-18T17:23:43;-4.00;99.90
5723;DHT22;2886;49.722;8.612;2022-12-18T17:26:09;-4.00;99.90
5723;DHT22;2886;49.722;8.612;2022-12-18T17:28:37;-4.00;99.90
5723;DHT22;2886;49.722;8.612;2022-12-18T17:31:13;-4.10;99.90
5723;DHT22;2886;49.722;8.612;2022-12-18T17:33:39;-4.00;99.90
5723;DHT22;2886;49.722;8.612;2022-12-18T17:36:05;-4.00;99.90
5723;DHT22;2886;49.722;8.612;2022-12-18T17:38:31;-4.00;99.90
5723;DHT22;2886;49.722;8.612;2022-12-18T17:41:01;-4.10;99.90
5723;DHT22;2886;49.722;8.612;2022-12-18T17:43:27;-4.00;99.90
5723;DHT22;2886;49.722;8.612;2022-12-18T17:45:53;-4.00;99.90
5723;DHT22;2886;49.722;8.612;2022-12-18T17:48:18;-4.00;99.90
5723;DHT22;2886;49.722;8.612;2022-12-18T17:50:44;-4.00;99.90
5723;DHT22;2886;49.722;8.612;2022-12-18T17:53:10;-4.00;99.90
5723;DHT22;2886;49.722;8.612;2022-12-18T17:55:36;-4.00;99.90
5723;DHT22;2886;49.722;8.612;2022-12-18T17:58:01;-4.00;99.90
5723;DHT22;2886;49.722;8.612;2022-12-18T18:00:27;-3.90;99.90
5723;DHT22;2886;49.722;8.612;2022-12-18T18:02:53;-3.90;99.90
5723;DHT22;2886;49.722;8.612;2022-12-18T18:05:19;-3.90;99.90
5723;DHT22;2886;49.722;8.612;2022-12-18T18:07:45;-3.90;99.90
5723;DHT22;2886;49.722;8.612;2022-12-18T18:10:11;-3.90;99.90
5723;DHT22;2886;49.722;8.612;2022-12-18T18:12:37;-3.80;99.90
5723;DHT22;2886;49.722;8.612;2022-12-18T18:15:21;-3.90;99.90
5723;DHT22;2886;49.722;8.612;2022-12-18T18:17:47;-3.90;99.90
5723;DHT22;2886;49.722;8.612;2022-12-18T18:20:16;-3.80;99.90
5723;DHT22;2886;49.722;8.612;2022-12-18T18:22:42;-3.70;99.90
5723;DHT22;2886;49.722;8.612;2022-12-18T18:25:08;-3.70;99.90
5723;DHT22;2886;49.722;8.612;2022-12-18T18:27:36;-3.70;99.90
5723;DHT22;2886;49.722;8.612;2022-12-18T18:30:02;-3.70;99.90
5723;DHT22;2886;49.722;8.612;2022-12-18T18:32:30;-3.60;99.90
5723;DHT22;2886;49.722;8.612;2022-12-18T18:34:56;-3.60;99.90